Time;durP1;ratioP1;P1;durP2;ratioP2;P2;SDS_P1;SDS_P2;PMS_P1;PMS_P2;Temp;Humidity;BMP_temperature;BMP_pressure;BME280_temperature;BME280_humidity;BME280_pressure;Samples;Min_cycle;Max_cycle;Signal;HPM_P1;HPM_P2
2022/03/02 00:00:32;;;;;;;14.03;11.20;;;;;;;3.52;99.18;100064.81;5073185;28;20222;-77
2022/03/02 00:02:58;;;;;;;12.93;10.33;;;;;;;3.18;99.80;100042.28;5073365;28;20200;-76
2022/03/02 00:05:27;;;;;;;16.47;10.70;;;;;;;3.26;100.00;100061.19;5073127;28;20717;-76
2022/03/02 00:07:54;;;;;;;14.87;9.93;;;;;;;3.25;100.00;100057.78;5073354;28;20645;-77
2022/03/02 00:10:21;;;;;;;11.43;9.93;;;;;;;3.05;100.00;100027.66;5073472;28;20222;-77
2022/03/02 00:12:50;;;;;;;12.60;10.03;;;;;;;3.20;100.00;100056.84;5073214;28;20656;-77
2022/03/02 00:15:17;;;;;;;11.37;9.10;;;;;;;3.36;100.00;100057.88;5072906;28;20600;-77
2022/03/02 00:17:44;;;;;;;11.30;9.17;;;;;;;3.12;100.00;100048.22;5072850;28;20202;-77
2022/03/02 00:20:12;;;;;;;13.97;10.13;;;;;;;3.13;100.00;100042.25;5072833;28;20209;-76
2022/03/02 00:22:39;;;;;;;17.73;10.70;;;;;;;3.15;100.00;100044.84;5072629;28;20202;-76
2022/03/02 00:25:07;;;;;;;15.67;11.23;;;;;;;3.11;100.00;100040.53;5072819;28;20593;-76
2022/03/02 00:27:34;;;;;;;16.63;10.90;;;;;;;2.99;100.00;100031.00;5072647;28;20289;-77
2022/03/02 00:30:02;;;;;;;16.00;11.00;;;;;;;3.06;100.00;100037.03;5072581;28;20286;-77
2022/03/02 00:32:29;;;;;;;15.33;10.80;;;;;;;2.92;100.00;100003.59;5072599;28;20203;-77
2022/03/02 00:34:56;;;;;;;14.60;11.40;;;;;;;2.85;100.00;100035.97;5072446;28;20195;-77
2022/03/02 00:37:23;;;;;;;23.23;12.93;;;;;;;2.43;100.00;99950.97;5073064;28;20642;-79
2022/03/02 00:39:50;;;;;;;22.87;12.70;;;;;;;3.01;100.00;100025.88;5072912;28;20530;-78
2022/03/02 00:42:17;;;;;;;17.87;12.60;;;;;;;2.67;100.00;99991.38;5072261;28;20217;-77
2022/03/02 00:44:44;;;;;;;20.17;11.83;;;;;;;2.52;100.00;99966.44;5072286;28;20584;-76
2022/03/02 00:47:13;;;;;;;17.40;12.23;;;;;;;2.60;100.00;100017.78;5072986;28;20198;-83
2022/03/02 00:49:40;;;;;;;21.07;12.57;;;;;;;2.60;100.00;100020.34;5073414;28;20207;-85
2022/03/02 00:52:10;;;;;;;16.53;12.07;;;;;;;2.74;100.00;100019.63;5073341;28;20284;-84
2022/03/02 00:54:37;;;;;;;20.37;12.47;;;;;;;2.77;100.00;100017.09;5073109;28;20266;-85
2022/03/02 00:57:04;;;;;;;20.50;12.10;;;;;;;2.74;100.00;100011.94;5073552;28;20232;-85
2022/03/02 00:59:32;;;;;;;17.13;12.40;;;;;;;2.58;100.00;100006.66;5073907;28;20253;-84
2022/03/02 01:01:58;;;;;;;16.63;12.03;;;;;;;2.48;100.00;99959.56;5073299;28;20218;-85
2022/03/02 01:04:27;;;;;;;17.47;11.87;;;;;;;2.73;100.00;100001.66;5073708;28;20198;-86
2022/03/02 01:06:54;;;;;;;17.93;11.97;;;;;;;2.38;100.00;99957.72;5073775;28;20218;-85
2022/03/02 01:09:21;;;;;;;18.97;12.50;;;;;;;2.39;100.00;99967.13;5073706;28;20577;-85
2022/03/02 01:11:48;;;;;;;15.67;11.80;;;;;;;2.43;100.00;99972.31;5072296;28;20221;-84
2022/03/02 01:14:15;;;;;;;16.70;12.37;;;;;;;2.25;100.00;99971.25;5072601;28;20640;-85
2022/03/02 01:16:42;;;;;;;19.90;12.13;;;;;;;2.22;100.00;99960.97;5072325;28;20204;-85
2022/03/02 01:19:09;;;;;;;20.13;12.20;;;;;;;2.62;100.00;99995.56;5072297;28;20200;-84
2022/03/02 01:21:38;;;;;;;20.10;12.63;;;;;;;2.49;100.00;99992.88;5072488;28;20689;-84
2022/03/02 01:24:05;;;;;;;15.10;10.47;;;;;;;2.39;100.00;99985.94;5071761;28;20208;-85
2022/03/02 01:26:32;;;;;;;16.13;11.77;;;;;;;2.25;100.00;99981.50;5071482;28;20227;-77
2022/03/02 01:28:59;;;;;;;17.30;11.97;;;;;;;2.20;100.00;99973.75;5071621;28;20296;-77
2022/03/02 01:31:27;;;;;;;15.97;11.20;;;;;;;2.25;100.00;99963.56;5071835;28;20310;-77
2022/03/02 01:33:54;;;;;;;14.37;11.50;;;;;;;2.33;100.00;99972.19;5071415;28;20193;-75
2022/03/02 01:36:22;;;;;;;15.77;11.47;;;;;;;2.14;100.00;99963.44;5071674;28;20198;-76
2022/03/02 01:38:51;;;;;;;17.43;11.70;;;;;;;1.98;100.00;99930.81;5071353;28;20201;-78
2022/03/02 01:41:21;;;;;;;17.93;12.00;;;;;;;2.09;100.00;99963.38;5071587;28;20228;-77
2022/03/02 01:43:49;;;;;;;17.17;12.27;;;;;;;1.88;100.00;99919.59;5071603;28;20273;-77
2022/03/02 01:46:17;;;;;;;13.73;10.90;;;;;;;1.71;100.00;99877.56;5071220;28;20305;-76
2022/03/02 01:48:45;;;;;;;14.70;11.27;;;;;;;1.96;100.00;99914.56;5071514;28;20265;-77
2022/03/02 01:51:13;;;;;;;18.37;12.40;;;;;;;2.30;100.00;99964.47;5071159;28;20203;-77
2022/03/02 01:53:40;;;;;;;17.50;12.53;;;;;;;1.80;100.00;99863.22;5071271;28;20213;-77
2022/03/02 01:56:09;;;;;;;18.57;12.57;;;;;;;2.31;100.00;99938.03;5071207;28;20290;-76
2022/03/02 01:58:36;;;;;;;17.53;12.03;;;;;;;2.44;100.00;99952.69;5070955;28;20201;-76
2022/03/02 02:01:04;;;;;;;17.00;12.83;;;;;;;2.47;100.00;99943.34;5071262;28;20198;-76
2022/03/02 02:03:32;;;;;;;17.37;12.77;;;;;;;2.38;100.00;99952.59;5071030;28;20199;-76
2022/03/02 02:05:59;;;;;;;16.13;12.93;;;;;;;2.04;100.00;99895.03;5070880;28;20248;-77
2022/03/02 02:08:27;;;;;;;19.23;13.13;;;;;;;2.30;100.00;99943.97;5070944;28;20203;-77
2022/03/02 02:10:55;;;;;;;16.77;12.63;;;;;;;2.09;100.00;99901.06;5070831;28;20204;-76
2022/03/02 02:13:24;;;;;;;16.63;12.23;;;;;;;2.25;100.00;99945.66;5070444;28;20579;-76
2022/03/02 02:15:51;;;;;;;15.03;11.67;;;;;;;2.18;100.00;99934.47;5070542;28;20204;-77
2022/03/02 02:18:18;;;;;;;15.13;11.80;;;;;;;1.96;100.00;99896.66;5070489;28;20197;-77
2022/03/02 02:20:46;;;;;;;14.03;11.10;;;;;;;2.07;100.00;99913.00;5070429;28;20205;-76
2022/03/02 02:23:14;;;;;;;21.63;12.00;;;;;;;2.12;100.00;99930.13;5070745;28;20204;-76
2022/03/02 02:25:42;;;;;;;14.53;10.90;;;;;;;2.16;100.00;99931.88;5070343;28;20252;-77
2022/03/02 02:28:10;;;;;;;18.13;11.60;;;;;;;2.23;100.00;99926.84;5070620;28;20197;-77
2022/03/02 02:30:39;;;;;;;15.57;11.80;;;;;;;1.86;100.00;99894.81;5070687;28;20196;-77
2022/03/02 02:33:06;;;;;;;16.50;11.57;;;;;;;2.02;100.00;99942.81;5070897;28;20199;-84
2022/03/02 02:35:33;;;;;;;19.07;12.27;;;;;;;2.15;100.00;99932.72;5072187;28;20519;-85
2022/03/02 02:38:02;;;;;;;14.27;11.13;;;;;;;2.30;100.00;99932.03;5071664;28;20210;-85
2022/03/02 02:40:30;;;;;;;13.80;11.57;;;;;;;2.30;100.00;99929.47;5070554;28;20194;-83
2022/03/02 02:42:57;;;;;;;14.67;10.33;;;;;;;2.18;100.00;99937.88;5070694;28;20207;-83
2022/03/02 02:45:25;;;;;;;15.73;11.23;;;;;;;2.17;100.00;99931.03;5070390;28;20284;-83
2022/03/02 02:47:54;;;;;;;18.13;11.20;;;;;;;2.25;100.00;99927.72;5070213;28;20200;-84
2022/03/02 02:50:24;;;;;;;16.13;10.77;;;;;;;2.25;100.00;99925.16;5070459;28;20252;-84
2022/03/02 02:52:52;;;;;;;14.03;10.50;;;;;;;2.27;100.00;99918.31;5070377;28;20197;-85
2022/03/02 02:55:21;;;;;;;12.37;10.10;;;;;;;2.28;100.00;99920.91;5071881;28;20199;-85
2022/03/02 02:57:49;;;;;;;15.70;10.00;;;;;;;2.01;100.00;99865.16;5071695;28;20641;-83
2022/03/02 03:00:18;;;;;;;11.90;9.30;;;;;;;2.27;100.00;99920.88;5071557;28;20200;-84
2022/03/02 03:02:46;;;;;;;12.20;9.67;;;;;;;2.15;100.00;99912.22;5071808;28;20258;-86
2022/03/02 03:05:15;;;;;;;12.40;9.83;;;;;;;2.16;100.00;99911.38;5071305;28;20287;-77
2022/03/02 03:07:43;;;;;;;14.13;10.37;;;;;;;1.90;100.00;99912.81;5072729;28;20220;-83
2022/03/02 03:10:12;;;;;;;13.23;10.23;;;;;;;1.82;100.00;99909.28;5071567;28;20211;-85
2022/03/02 03:12:42;;;;;;;11.53;10.23;;;;;;;1.83;100.00;99909.28;5071716;28;20198;-84
2022/03/02 03:15:10;;;;;;;13.57;10.33;;;;;;;1.91;100.00;99906.84;5071190;28;20633;-84
2022/03/02 03:17:37;;;;;;;12.43;9.90;;;;;;;1.90;100.00;99914.50;5070427;28;20197;-84
2022/03/02 03:20:06;;;;;;;13.93;10.83;;;;;;;1.76;100.00;99904.94;5070680;28;20672;-84
2022/03/02 03:22:33;;;;;;;17.13;10.93;;;;;;;1.63;100.00;99909.88;5071010;28;20208;-77
2022/03/02 03:25:00;;;;;;;18.43;11.40;;;;;;;1.67;100.00;99911.66;5072609;28;20277;-77
2022/03/02 03:27:27;;;;;;;15.67;11.50;;;;;;;1.62;100.00;99880.00;5073769;28;20220;-77
2022/03/02 03:29:56;;;;;;;14.27;10.27;;;;;;;1.86;100.00;99907.63;5073677;28;20201;-78
2022/03/02 03:32:23;;;;;;;14.93;11.10;;;;;;;1.64;100.00;99888.56;5074171;28;20557;-77
2022/03/02 03:34:50;;;;;;;16.33;10.93;;;;;;;1.56;100.00;99873.13;5073575;28;20233;-77
2022/03/02 03:37:17;;;;;;;17.30;11.37;;;;;;;1.74;100.00;99910.88;5073528;28;20219;-77
2022/03/02 03:39:44;;;;;;;16.17;11.20;;;;;;;1.79;100.00;99910.13;5073162;28;20216;-76
2022/03/02 03:42:11;;;;;;;15.23;11.90;;;;;;;1.78;100.00;99902.41;5073233;28;20233;-76
2022/03/02 03:44:38;;;;;;;16.80;11.80;;;;;;;1.71;100.00;99910.81;5073599;28;20681;-76
2022/03/02 03:47:07;;;;;;;18.20;11.37;;;;;;;1.67;100.00;99906.53;5073518;28;20227;-75
2022/03/02 03:49:35;;;;;;;16.37;12.23;;;;;;;1.33;100.00;99826.81;5073651;28;20192;-77
2022/03/02 03:52:01;;;;;;;19.37;12.60;;;;;;;1.51;100.00;99828.72;5073703;28;20578;-77
2022/03/02 03:54:29;;;;;;;15.13;11.40;;;;;;;1.70;100.00;99861.34;5073477;28;20235;-77
2022/03/02 03:56:55;;;;;;;17.87;12.73;;;;;;;1.59;100.00;99864.63;5073288;28;20224;-77
2022/03/02 03:59:22;;;;;;;16.83;11.53;;;;;;;1.93;100.00;99905.13;5073181;28;20201;-76
2022/03/02 04:01:49;;;;;;;19.43;13.40;;;;;;;1.62;100.00;99857.84;5072628;28;21312;-77
2022/03/02 04:04:18;;;;;;;20.47;12.97;;;;;;;1.76;100.00;99898.97;5071982;28;20222;-75
2022/03/02 04:06:45;;;;;;;24.10;14.10;;;;;;;1.69;100.00;99892.06;5071580;28;20220;-76
2022/03/02 04:09:12;;;;;;;17.10;13.17;;;;;;;1.73;100.00;99888.69;5071473;28;20196;-75
2022/03/02 04:11:39;;;;;;;21.60;14.37;;;;;;;1.56;100.00;99867.16;5072011;28;20590;-76
2022/03/02 04:14:06;;;;;;;25.23;16.63;;;;;;;1.58;100.00;99878.28;5071865;28;20632;-77
2022/03/02 04:16:33;;;;;;;26.70;16.57;;;;;;;1.69;100.00;99894.63;5071901;28;20196;-76
2022/03/02 04:19:00;;;;;;;25.80;16.33;;;;;;;1.59;100.00;99900.44;5071987;28;20693;-77
2022/03/02 04:21:28;;;;;;;22.43;15.90;;;;;;;1.55;100.00;99894.44;5072502;28;20196;-77
2022/03/02 04:23:55;;;;;;;28.20;15.30;;;;;;;1.37;100.00;99866.03;5072951;28;20272;-76
2022/03/02 04:26:23;;;;;;;21.77;15.37;;;;;;;1.38;100.00;99883.97;5072550;28;20231;-76
2022/03/02 04:28:49;;;;;;;25.03;15.90;;;;;;;1.02;100.00;99824.63;5072235;28;20714;-75
2022/03/02 04:31:16;;;;;;;22.47;15.07;;;;;;;1.23;100.00;99858.19;5072663;28;20192;-80
2022/03/02 04:33:43;;;;;;;29.93;15.83;;;;;;;1.29;100.00;99871.06;5071262;28;20579;-79
2022/03/02 04:36:10;;;;;;;20.63;14.73;;;;;;;1.36;100.00;99867.72;5072546;28;20265;-80
2022/03/02 04:38:39;;;;;;;28.57;17.07;;;;;;;1.49;100.00;99875.56;5071434;28;20224;-80
2022/03/02 04:41:06;;;;;;;26.27;16.03;;;;;;;1.34;100.00;99874.56;5070868;28;20624;-79
2022/03/02 04:43:32;;;;;;;28.80;17.47;;;;;;;1.23;100.00;99855.66;5070382;28;20222;-81
2022/03/02 04:46:00;;;;;;;28.03;17.53;;;;;;;1.20;100.00;99840.25;5070514;28;20219;-78
2022/03/02 04:48:27;;;;;;;24.97;17.17;;;;;;;1.47;100.00;99872.16;5070051;28;20226;-78
2022/03/02 04:50:54;;;;;;;29.80;17.47;;;;;;;1.17;100.00;99812.06;5069155;28;20228;-79
2022/03/02 04:53:23;;;;;;;27.37;18.17;;;;;;;1.41;100.00;99845.66;5069698;28;20266;-78
2022/03/02 04:55:52;;;;;;;27.83;17.80;;;;;;;1.34;100.00;99836.19;5070411;28;20242;-79
2022/03/02 04:58:20;;;;;;;27.40;18.07;;;;;;;1.51;100.00;99859.41;5070275;28;20248;-81
2022/03/02 05:00:47;;;;;;;29.07;17.83;;;;;;;1.65;100.00;99867.28;5067653;28;20243;-79
2022/03/02 05:03:15;;;;;;;30.40;17.97;;;;;;;1.72;100.00;99872.47;5070689;28;20234;-78
2022/03/02 05:05:42;;;;;;;31.37;18.53;;;;;;;1.68;100.00;99845.16;5070087;28;20228;-81
2022/03/02 05:08:09;;;;;;;33.33;18.87;;;;;;;1.76;100.00;99858.88;5070409;28;20231;-76
2022/03/02 05:10:36;;;;;;;28.43;17.67;;;;;;;1.53;100.00;99824.50;5070300;28;20222;-79
2022/03/02 05:13:05;;;;;;;26.13;17.87;;;;;;;1.41;100.00;99793.66;5070402;28;20220;-77
2022/03/02 05:15:32;;;;;;;28.97;18.47;;;;;;;1.57;100.00;99807.50;5069826;28;20228;-79
2022/03/02 05:17:59;;;;;;;27.97;16.93;;;;;;;2.06;100.00;99873.72;5071404;28;20307;-78
2022/03/02 05:20:27;;;;;;;27.80;16.63;;;;;;;2.01;100.00;99856.63;5071168;28;20581;-79
2022/03/02 05:22:54;;;;;;;25.97;16.97;;;;;;;1.56;100.00;99800.66;5071403;28;20225;-78
2022/03/02 05:25:24;;;;;;;24.77;16.17;;;;;;;1.88;100.00;99868.41;5070192;28;20715;-79
2022/03/02 05:27:51;;;;;;;23.47;15.70;;;;;;;1.79;100.00;99873.44;5071394;28;20224;-79
2022/03/02 05:30:20;;;;;;;21.80;15.73;;;;;;;1.09;100.00;99724.22;5071977;28;20201;-80
2022/03/02 05:32:48;;;;;;;28.83;15.43;;;;;;;2.14;100.00;99869.53;5071659;28;20656;-77
2022/03/02 05:35:15;;;;;;;21.77;15.13;;;;;;;2.05;100.00;99828.47;5071639;28;20203;-78
2022/03/02 05:37:43;;;;;;;26.63;16.27;;;;;;;2.43;100.00;99874.97;5071394;28;20735;-76
2022/03/02 05:40:13;;;;;;;23.80;16.47;;;;;;;2.46;100.00;99869.88;5071541;28;20202;-78
2022/03/02 05:42:40;;;;;;;24.20;16.47;;;;;;;2.60;100.00;99867.41;5069825;28;20631;-77
2022/03/02 05:45:09;;;;;;;25.40;16.23;;;;;;;2.67;100.00;99860.66;5071183;28;20263;-77
2022/03/02 05:47:37;;;;;;;28.40;17.70;;;;;;;2.55;100.00;99838.34;5069500;28;20717;-77
2022/03/02 05:50:06;;;;;;;26.73;18.20;;;;;;;2.85;100.00;99881.31;5070625;28;20230;-78
2022/03/02 05:52:33;;;;;;;26.80;17.83;;;;;;;2.52;100.00;99813.56;5070741;28;20671;-78
2022/03/02 05:55:01;;;;;;;25.70;17.57;;;;;;;3.12;100.00;99883.22;5070767;28;20219;-78
2022/03/02 05:57:28;;;;;;;27.43;16.27;;;;;;;3.30;100.00;99880.78;5070309;28;20229;-78
2022/03/02 05:59:54;;;;;;;25.60;17.10;;;;;;;3.52;100.00;99890.31;5070779;28;20299;-78
2022/03/02 06:02:21;;;;;;;25.70;17.37;;;;;;;3.57;100.00;99864.69;5070787;28;20606;-78
2022/03/02 06:04:50;;;;;;;23.63;16.67;;;;;;;2.72;100.00;99698.38;5070816;28;20211;-79
2022/03/02 06:07:17;;;;;;;28.33;18.87;;;;;;;3.95;100.00;99893.09;5070608;28;20219;-78
2022/03/02 06:09:44;;;;;;;32.73;21.27;;;;;;;3.86;100.00;99887.91;5071083;28;20205;-79
2022/03/02 06:12:13;;;;;;;42.13;22.93;;;;;;;3.81;100.00;99874.22;5069366;28;20207;-79
2022/03/02 06:14:40;;;;;;;31.10;19.83;;;;;;;3.96;100.00;99894.78;5071294;28;20599;-79
2022/03/02 06:17:09;;;;;;;32.67;19.90;;;;;;;4.01;100.00;99877.72;5070186;28;20636;-77
2022/03/02 06:19:36;;;;;;;29.93;19.97;;;;;;;4.24;100.00;99873.50;5059816;28;20220;-82
2022/03/02 06:22:06;;;;;;;30.60;19.17;;;;;;;5.07;99.33;99901.00;5050975;28;20200;-77
2022/03/02 06:24:33;;;;;;;33.47;20.70;;;;;;;5.32;95.25;99893.22;5067350;28;20222;-77
2022/03/02 06:27:00;;;;;;;27.67;17.50;;;;;;;5.18;93.96;99892.41;5070543;28;20218;-76
2022/03/02 06:29:28;;;;;;;27.97;19.17;;;;;;;4.72;95.14;99892.44;5070598;28;20672;-77
2022/03/02 06:31:56;;;;;;;27.63;18.43;;;;;;;4.74;95.27;99891.53;5070745;28;20192;-76
2022/03/02 06:34:23;;;;;;;24.53;17.77;;;;;;;4.78;95.14;99894.13;5070770;28;20207;-78
2022/03/02 06:36:51;;;;;;;27.77;18.13;;;;;;;4.64;95.11;99847.84;5070687;28;20195;-78
2022/03/02 06:39:21;;;;;;;33.70;21.00;;;;;;;4.98;94.65;99900.13;5070518;28;20278;-77
2022/03/02 06:42:05;;;;;;;40.10;21.10;;;;;;;5.39;93.37;99897.53;5070428;28;20730;-76
2022/03/02 06:44:34;;;;;;;28.07;18.87;;;;;;;5.53;90.58;99890.63;5070834;28;20283;-77
2022/03/02 06:47:06;;;;;;;35.13;19.67;;;;;;;5.61;91.12;99896.63;5070823;28;20305;-78
2022/03/02 06:49:52;;;;;;;37.43;20.30;;;;;;;5.94;88.73;99856.19;5070932;28;20589;-80
2022/03/02 06:52:21;;;;;;;30.33;18.83;;;;;;;7.27;84.48;99895.63;5070714;28;20206;-77
2022/03/02 06:54:51;;;;;;;27.13;17.70;;;;;;;8.65;79.73;99891.41;5070401;28;20290;-75
2022/03/02 06:57:20;;;;;;;30.30;17.33;;;;;;;10.29;71.85;99903.09;5070423;28;20291;-76
2022/03/02 06:59:53;;;;;;;28.27;18.20;;;;;;;11.71;67.97;99897.91;5074438;28;20298;-75
2022/03/02 07:02:25;;;;;;;24.63;18.10;;;;;;;12.82;61.49;99907.63;5074325;28;20192;-76
2022/03/02 07:04:53;;;;;;;25.33;18.27;;;;;;;12.76;60.35;99907.81;5073970;28;20200;-76
2022/03/02 07:07:21;;;;;;;26.27;18.50;;;;;;;11.96;60.95;99905.91;5074668;28;20616;-78
2022/03/02 07:09:50;;;;;;;32.63;20.43;;;;;;;11.13;63.38;99898.56;5074668;28;20200;-84
2022/03/02 07:12:18;;;;;;;26.50;19.23;;;;;;;11.05;64.75;99897.91;5075037;28;20290;-85
2022/03/02 07:14:46;;;;;;;29.07;20.40;;;;;;;10.68;65.03;99878.00;5075261;28;20206;-85
2022/03/02 07:17:13;;;;;;;31.47;19.63;;;;;;;10.68;65.06;99895.31;5073864;28;20206;-84
2022/03/02 07:19:40;;;;;;;32.33;20.43;;;;;;;10.30;66.38;99846.88;5074944;28;20200;-82
2022/03/02 07:22:09;;;;;;;34.80;18.90;;;;;;;10.27;66.50;99857.34;5075533;28;20227;-84
2022/03/02 07:24:41;;;;;;;26.53;18.10;;;;;;;10.13;66.97;99884.38;5074473;28;20228;-82
2022/03/02 07:27:10;;;;;;;20.07;15.37;;;;;;;9.88;65.73;99885.78;5076020;28;20200;-85
2022/03/02 07:29:37;;;;;;;26.73;15.30;;;;;;;9.23;65.99;99843.84;5076515;28;20278;-84
2022/03/02 07:32:05;;;;;;;18.57;13.27;;;;;;;9.15;65.42;99858.63;5074395;28;20706;-84
2022/03/02 07:34:33;;;;;;;18.33;12.37;;;;;;;9.24;64.86;99876.63;5074055;28;20192;-86
2022/03/02 07:37:01;;;;;;;21.67;11.57;;;;;;;8.93;63.61;99875.41;5070348;28;20228;-86
2022/03/02 07:39:28;;;;;;;14.17;11.27;;;;;;;8.79;63.37;99872.22;5054153;28;20229;-86
2022/03/02 07:41:57;;;;;;;18.40;10.17;;;;;;;8.97;62.41;99856.38;5054168;28;20236;-86
2022/03/02 07:44:27;;;;;;;20.07;10.07;;;;;;;8.98;62.77;99861.53;5054187;28;20196;-86
2022/03/02 07:46:54;;;;;;;14.63;10.10;;;;;;;8.45;63.05;99807.22;5054472;28;20205;-86
2022/03/02 07:49:21;;;;;;;16.97;10.20;;;;;;;8.78;62.98;99853.25;5054655;28;20217;-87
2022/03/02 07:51:52;;;;;;;13.93;9.90;;;;;;;8.83;62.79;99847.97;5055325;28;20287;-86
2022/03/02 07:54:22;;;;;;;14.83;10.20;;;;;;;8.70;62.88;99853.34;5054401;28;20244;-85
2022/03/02 07:56:50;;;;;;;15.83;10.37;;;;;;;8.56;62.84;99816.50;5054305;28;20207;-86
2022/03/02 07:59:17;;;;;;;39.00;12.27;;;;;;;8.62;62.96;99836.25;5054599;28;20189;-88
2022/03/02 08:01:46;;;;;;;23.87;11.17;;;;;;;8.13;63.50;99779.19;5054171;28;20699;-86
2022/03/02 08:04:14;;;;;;;30.37;10.93;;;;;;;8.46;63.96;99819.25;5054721;28;20581;-87
2022/03/02 08:06:43;;;;;;;18.90;10.53;;;;;;;8.69;73.09;99815.41;5053046;28;20220;-80
2022/03/02 08:09:12;;;;;;;23.53;12.13;;;;;;;8.93;65.72;99828.81;5052391;28;20229;-80
2022/03/02 08:11:40;;;;;;;13.20;9.67;;;;;;;8.80;64.11;99781.59;5052460;28;20228;-80
2022/03/02 08:14:08;;;;;;;15.30;10.13;;;;;;;8.80;64.06;99791.09;5052775;28;20254;-80
2022/03/02 08:16:36;;;;;;;29.13;11.30;;;;;;;9.11;64.21;99823.34;5059680;28;20230;-85
2022/03/02 08:19:07;;;;;;;12.97;9.60;;;;;;;9.20;63.49;99814.53;5063422;28;20220;-77
2022/03/02 08:21:35;;;;;;;23.13;10.57;;;;;;;9.11;63.29;99789.66;5072316;28;20224;-77
2022/03/02 08:24:05;;;;;;;22.60;11.90;;;;;;;9.22;62.75;99805.88;5071899;28;20759;-78
2022/03/02 08:26:34;;;;;;;19.57;9.63;;;;;;;9.10;62.81;99811.28;5071750;28;20726;-85
2022/03/02 08:29:05;;;;;;;13.30;8.70;;;;;;;8.95;63.16;99807.22;5069693;28;20238;-86
2022/03/02 08:31:33;;;;;;;10.13;9.07;;;;;;;8.47;63.32;99767.47;5071324;28;20638;-85
2022/03/02 08:34:02;;;;;;;32.53;10.40;;;;;;;8.35;64.46;99763.34;5072231;28;20192;-87
2022/03/02 08:36:33;;;;;;;18.27;10.20;;;;;;;8.79;64.21;99792.84;5072477;28;20189;-86
2022/03/02 08:39:02;;;;;;;23.10;10.10;;;;;;;8.83;63.57;99793.63;5071678;28;20220;-86
2022/03/02 08:41:29;;;;;;;17.07;9.07;;;;;;;8.82;63.31;99766.03;5072574;28;20310;-85
2022/03/02 08:43:57;;;;;;;18.37;9.73;;;;;;;8.90;63.08;99785.75;5072717;28;20666;-85
2022/03/02 08:46:24;;;;;;;13.53;9.10;;;;;;;8.74;63.11;99767.03;5072589;28;20204;-86
2022/03/02 08:48:51;;;;;;;30.87;10.73;;;;;;;8.74;63.35;99774.78;5073170;28;20231;-87
2022/03/02 08:51:21;;;;;;;12.83;8.67;;;;;;;8.51;62.96;99753.63;5071598;28;20295;-86
2022/03/02 08:53:50;;;;;;;15.70;9.30;;;;;;;8.76;63.38;99756.66;5071980;28;20202;-85
2022/03/02 08:56:18;;;;;;;10.33;8.30;;;;;;;8.81;63.50;99754.81;5066295;28;20216;-85
2022/03/02 08:58:45;;;;;;;11.33;7.57;;;;;;;8.87;63.32;99762.50;5070987;28;20751;-83
2022/03/02 09:01:14;;;;;;;8.40;7.30;;;;;;;8.48;63.76;99717.44;5071607;28;20673;-85
2022/03/02 09:03:45;;;;;;;15.30;8.53;;;;;;;8.58;64.18;99762.97;5071888;28;20204;-83
2022/03/02 09:06:12;;;;;;;21.10;8.97;;;;;;;8.69;62.43;99747.31;5071323;28;20196;-85
2022/03/02 09:08:40;;;;;;;11.07;7.80;;;;;;;8.83;61.77;99752.22;5071132;28;20216;-86
2022/03/02 09:11:09;;;;;;;11.53;8.67;;;;;;;8.98;62.20;99750.19;5071143;28;20223;-86
2022/03/02 09:13:37;;;;;;;14.33;8.07;;;;;;;9.10;61.40;99736.19;5071408;28;20188;-86
2022/03/02 09:16:05;;;;;;;41.90;10.43;;;;;;;8.95;61.02;99708.84;5072181;28;20203;-86
2022/03/02 09:18:32;;;;;;;22.53;8.30;;;;;;;8.89;60.41;99731.41;5072479;28;20194;-86
2022/03/02 09:21:02;;;;;;;26.77;9.27;;;;;;;8.71;60.33;99707.56;5070777;28;20192;-84
2022/03/02 09:23:32;;;;;;;13.27;6.93;;;;;;;8.73;59.68;99726.50;5072108;28;20198;-86
2022/03/02 09:26:05;;;;;;;28.97;7.53;;;;;;;8.63;60.36;99737.91;5071836;28;20196;-84
2022/03/02 09:28:37;;;;;;;11.73;6.27;;;;;;;8.47;61.14;99736.44;5072415;28;20223;-86
2022/03/02 09:31:06;;;;;;;7.67;5.97;;;;;;;8.21;62.12;99698.06;5070931;28;20196;-87
2022/03/02 09:33:34;;;;;;;6.93;6.30;;;;;;;8.36;61.78;99730.59;5051005;28;20216;-85
2022/03/02 09:36:03;;;;;;;9.27;6.37;;;;;;;8.12;62.32;99699.94;5051920;28;20203;-85
2022/03/02 09:38:32;;;;;;;8.13;6.27;;;;;;;8.10;63.52;99709.44;5052249;28;20207;-85
2022/03/02 09:41:04;;;;;;;19.27;6.60;;;;;;;8.00;62.58;99704.44;5051784;28;20267;-86
2022/03/02 09:43:35;;;;;;;8.30;6.00;;;;;;;8.15;62.40;99695.56;5052436;28;20288;-83
2022/03/02 09:46:05;;;;;;;7.53;6.80;;;;;;;8.24;62.49;99694.59;5056868;28;20689;-85
2022/03/02 09:48:35;;;;;;;7.83;6.23;;;;;;;8.26;62.27;99678.13;5071521;28;20695;-86
2022/03/02 09:51:07;;;;;;;7.13;6.47;;;;;;;8.27;62.90;99676.41;5071160;28;20227;-84
2022/03/02 09:53:35;;;;;;;6.73;6.13;;;;;;;8.21;63.01;99674.78;5071523;28;20698;-84
2022/03/02 09:56:05;;;;;;;8.53;7.70;;;;;;;8.48;63.12;99675.22;5072185;28;20692;-85
2022/03/02 09:58:39;;;;;;;7.43;6.27;;;;;;;8.63;62.64;99649.94;5071302;28;20718;-84
2022/03/02 10:01:14;;;;;;;6.23;5.73;;;;;;;8.83;61.62;99656.44;5070502;28;20216;-85
2022/03/02 10:03:47;;;;;;;6.00;5.60;;;;;;;9.00;61.71;99623.31;5070982;28;20215;-85
2022/03/02 10:06:17;;;;;;;17.20;7.83;;;;;;;9.45;61.66;99648.25;5050307;28;20204;-84
2022/03/02 10:08:48;;;;;;;7.80;5.87;;;;;;;9.57;61.07;99646.25;5065106;28;20226;-85
2022/03/02 10:11:19;;;;;;;10.33;6.77;;;;;;;9.53;61.21;99637.69;5070437;28;20668;-85
2022/03/02 10:13:48;;;;;;;9.13;6.50;;;;;;;9.27;62.37;99632.22;5070227;28;20278;-86
2022/03/02 10:16:25;;;;;;;7.63;6.00;;;;;;;9.38;62.39;99632.84;5070039;28;20278;-85
2022/03/02 10:18:57;;;;;;;12.17;6.90;;;;;;;9.37;62.73;99625.97;5069234;28;20194;-85
2022/03/02 10:21:29;;;;;;;10.83;7.67;;;;;;;9.41;63.05;99622.41;5068169;28;20199;-85
2022/03/02 10:23:59;;;;;;;12.07;7.33;;;;;;;9.25;63.46;99626.25;5069901;28;20195;-85
2022/03/02 10:26:28;;;;;;;9.70;6.67;;;;;;;9.12;62.43;99622.22;5070623;28;20196;-86
2022/03/02 10:29:08;;;;;;;10.80;6.73;;;;;;;8.80;63.09;99568.53;5067642;28;20231;-85
2022/03/02 10:31:45;;;;;;;14.37;6.83;;;;;;;9.27;62.41;99612.34;5070424;28;20211;-86
2022/03/02 10:34:33;;;;;;;10.20;7.03;;;;;;;9.34;60.77;99613.09;5067982;28;20219;-86
2022/03/02 10:37:29;;;;;;;10.23;6.90;;;;;;;9.40;60.76;99593.06;5070956;28;20232;-87
2022/03/02 10:40:05;;;;;;;11.90;5.90;;;;;;;9.53;60.57;99593.66;5073223;28;20222;-86
2022/03/02 10:42:35;;;;;;;7.43;6.23;;;;;;;9.50;61.01;99588.53;5073276;28;20239;-88
2022/03/02 10:45:10;;;;;;;9.57;6.83;;;;;;;9.27;61.64;99585.59;5072004;28;20226;-85
2022/03/02 10:47:52;;;;;;;7.67;6.50;;;;;;;9.38;61.30;99576.72;5069994;28;20223;-85
2022/03/02 10:50:20;;;;;;;12.40;7.20;;;;;;;9.31;61.89;99572.56;5069921;28;20665;-81
2022/03/02 10:52:49;;;;;;;8.07;6.40;;;;;;;9.38;60.77;99568.94;5069670;28;20199;-87
2022/03/02 10:55:17;;;;;;;8.23;5.57;;;;;;;9.38;59.79;99563.75;5070389;28;20664;-87
2022/03/02 10:57:48;;;;;;;9.23;6.20;;;;;;;9.47;59.33;99560.13;5070714;28;20228;-89
2022/03/02 11:00:19;;;;;;;5.53;5.13;;;;;;;9.50;58.49;99556.59;5071222;28;20200;-87
2022/03/02 11:02:48;;;;;;;5.33;4.67;;;;;;;9.19;58.77;99517.59;5070614;28;20588;-86
2022/03/02 11:05:18;;;;;;;6.10;5.50;;;;;;;9.46;58.54;99551.50;5070517;28;20200;-87
2022/03/02 11:07:47;;;;;;;5.10;4.70;;;;;;;9.44;58.04;99555.00;5070790;28;20695;-87
2022/03/02 11:10:16;;;;;;;6.90;5.23;;;;;;;9.40;58.58;99551.63;5070371;28;20273;-86
2022/03/02 11:12:45;;;;;;;7.13;5.30;;;;;;;9.40;58.58;99536.09;5070002;28;20668;-79
2022/03/02 11:15:15;;;;;;;5.47;4.97;;;;;;;9.57;57.52;99546.06;5069544;28;20270;-79
2022/03/02 11:17:58;;;;;;;6.87;5.40;;;;;;;9.77;57.82;99532.59;5069506;28;20199;-79
2022/03/02 11:20:26;;;;;;;7.10;6.40;;;;;;;9.90;57.18;99520.19;5069594;28;20203;-79
2022/03/02 11:22:55;;;;;;;8.17;6.13;;;;;;;10.07;57.85;99534.38;5069761;28;20199;-79
2022/03/02 11:25:41;;;;;;;5.90;5.40;;;;;;;10.00;58.08;99529.41;5069442;28;20344;-80
2022/03/02 11:28:08;;;;;;;9.80;5.80;;;;;;;9.82;58.31;99523.81;5067045;28;20210;-79
2022/03/02 11:30:38;;;;;;;5.63;5.07;;;;;;;9.61;58.37;99505.34;5069364;28;20199;-80